Time;durP1;ratioP1;P1;durP2;ratioP2;P2;SDS_P1;SDS_P2;PMS_P1;PMS_P2;Temp;Humidity;BMP_temperature;BMP_pressure;BME280_temperature;BME280_humidity;BME280_pressure;Samples;Min_cycle;Max_cycle;Signal;HPM_P1;HPM_P2
2022/09/07 00:01:04;;;;;;;8.15;7.20;;;18.20;99.90;;;;;;7400796;19;20551;-82
2022/09/07 00:03:30;;;;;;;10.35;7.05;;;18.20;99.90;;;;;;7402360;19;20007;-83
2022/09/07 00:05:56;;;;;;;11.18;7.32;;;18.10;99.90;;;;;;7399615;19;20425;-82
2022/09/07 00:08:25;;;;;;;9.85;7.60;;;18.10;99.90;;;;;;7398584;19;20018;-82
2022/09/07 00:10:58;;;;;;;10.68;8.13;;;18.10;99.90;;;;;;7396965;19;20030;-82
2022/09/07 00:13:27;;;;;;;11.30;8.65;;;18.10;99.90;;;;;;7396559;19;20014;-82
2022/09/07 00:15:52;;;;;;;11.35;8.30;;;18.00;99.90;;;;;;7399197;19;20039;-83
2022/09/07 00:18:19;;;;;;;11.48;8.30;;;18.00;99.90;;;;;;7396956;19;20374;-82
2022/09/07 00:20:44;;;;;;;10.55;8.43;;;17.90;99.90;;;;;;7400346;19;20015;-82
2022/09/07 00:23:11;;;;;;;11.07;8.90;;;17.90;99.90;;;;;;7400247;19;20044;-82
2022/09/07 00:25:38;;;;;;;15.55;9.40;;;17.90;99.90;;;;;;7396391;19;20491;-82
2022/09/07 00:28:07;;;;;;;9.95;8.88;;;17.90;99.90;;;;;;7398429;19;20043;-83
2022/09/07 00:30:34;;;;;;;11.75;9.18;;;18.00;99.90;;;;;;7401172;19;20018;-82
2022/09/07 00:32:59;;;;;;;10.20;9.07;;;17.90;99.90;;;;;;7398372;19;20039;-82
2022/09/07 00:35:26;;;;;;;11.23;8.73;;;18.00;99.90;;;;;;7400082;19;20015;-83
2022/09/07 00:37:51;;;;;;;11.52;8.88;;;17.90;99.90;;;;;;7395668;19;20019;-82
2022/09/07 00:40:17;;;;;;;9.90;8.65;;;18.00;99.90;;;;;;7400633;19;20032;-82
2022/09/07 00:42:43;;;;;;;12.65;10.13;;;17.90;99.90;;;;;;7399010;19;20086;-82
2022/09/07 00:45:17;;;;;;;13.52;9.18;;;17.90;99.90;;;;;;7399076;19;20022;-83
2022/09/07 00:47:59;;;;;;;11.80;8.75;;;17.90;99.90;;;;;;7397035;19;20006;-82
2022/09/07 00:50:45;;;;;;;10.40;8.98;;;17.90;99.90;;;;;;7395935;19;20015;-82
2022/09/07 00:53:19;;;;;;;9.90;8.38;;;17.90;99.90;;;;;;7400670;19;20015;-82
2022/09/07 00:55:48;;;;;;;11.70;8.85;;;17.90;99.90;;;;;;7397620;19;20011;-83
2022/09/07 00:58:15;;;;;;;12.65;9.05;;;17.90;99.90;;;;;;7397282;19;20024;-82
2022/09/07 01:00:42;;;;;;;11.98;8.38;;;17.90;99.90;;;;;;7399736;19;20014;-82
2022/09/07 01:03:09;;;;;;;9.88;8.90;;;17.80;99.90;;;;;;7399118;19;20040;-82
2022/09/07 01:05:50;;;;;;;9.90;8.95;;;17.90;99.90;;;;;;7400205;19;20015;-82
2022/09/07 01:08:17;;;;;;;11.73;9.15;;;17.80;99.90;;;;;;7396352;19;20010;-82
2022/09/07 01:10:43;;;;;;;15.38;9.63;;;17.80;99.90;;;;;;7400041;19;20014;-82
2022/09/07 01:13:09;;;;;;;11.80;9.07;;;17.80;99.90;;;;;;7399186;19;20040;-82
2022/09/07 01:15:58;;;;;;;11.50;9.90;;;17.80;99.90;;;;;;7395086;19;20010;-82
2022/09/07 01:18:49;;;;;;;12.23;9.68;;;17.80;99.90;;;;;;7395576;19;20346;-82
2022/09/07 01:21:23;;;;;;;11.90;9.77;;;17.70;99.90;;;;;;7395186;19;20531;-83
2022/09/07 01:24:24;;;;;;;14.40;9.90;;;17.70;99.90;;;;;;7396452;19;20014;-83
2022/09/07 01:27:15;;;;;;;10.68;9.30;;;17.70;99.90;;;;;;7395899;19;20015;-82
2022/09/07 01:30:04;;;;;;;12.30;10.02;;;17.60;99.90;;;;;;7398396;19;20028;-83
2022/09/07 01:32:52;;;;;;;12.77;9.30;;;17.70;99.90;;;;;;7395798;19;20018;-83
2022/09/07 01:35:38;;;;;;;11.43;9.38;;;17.70;99.90;;;;;;7398619;19;20015;-83
2022/09/07 01:38:29;;;;;;;10.60;9.60;;;17.80;99.90;;;;;;7394352;19;20037;-82
2022/09/07 01:41:06;;;;;;;12.60;9.88;;;17.80;99.90;;;;;;7398231;19;20364;-82
2022/09/07 01:43:57;;;;;;;9.82;8.88;;;17.80;99.90;;;;;;7396209;19;20386;-82
2022/09/07 01:46:38;;;;;;;14.63;10.63;;;17.90;99.90;;;;;;7394781;19;20018;-82
2022/09/07 01:49:19;;;;;;;15.68;10.75;;;18.00;99.90;;;;;;7397730;19;20504;-82
2022/09/07 01:51:49;;;;;;;16.15;10.90;;;17.90;99.90;;;;;;7395887;19;20019;-82
2022/09/07 01:54:40;;;;;;;14.57;12.63;;;17.90;99.90;;;;;;7392988;19;20022;-82
2022/09/07 01:57:18;;;;;;;15.68;13.48;;;17.80;99.90;;;;;;7397063;19;20014;-82
2022/09/07 01:59:57;;;;;;;17.75;13.70;;;17.70;99.90;;;;;;7393149;19;20007;-82
2022/09/07 02:02:29;;;;;;;17.73;14.82;;;17.50;99.90;;;;;;7397366;19;20011;-82
2022/09/07 02:05:26;;;;;;;17.05;13.98;;;17.30;99.90;;;;;;7398411;19;20010;-82
2022/09/07 02:08:05;;;;;;;14.15;12.25;;;17.20;99.90;;;;;;7393227;19;20014;-82
2022/09/07 02:10:49;;;;;;;13.18;11.77;;;17.30;99.90;;;;;;7397471;19;20040;-82
2022/09/07 02:13:29;;;;;;;12.65;11.43;;;17.20;99.90;;;;;;7396788;19;20015;-83
2022/09/07 02:16:06;;;;;;;18.77;15.90;;;17.40;99.90;;;;;;7394327;19;20032;-81
2022/09/07 02:18:39;;;;;;;21.70;17.17;;;17.30;99.90;;;;;;7394523;19;20015;-82
2022/09/07 02:21:09;;;;;;;16.05;13.35;;;17.30;99.90;;;;;;7394046;19;20010;-82
2022/09/07 02:23:45;;;;;;;19.10;15.80;;;17.20;99.90;;;;;;7396829;19;20046;-82
2022/09/07 02:26:16;;;;;;;21.60;19.15;;;17.20;99.90;;;;;;7395593;19;20029;-83
2022/09/07 02:28:42;;;;;;;22.50;19.98;;;17.20;99.90;;;;;;7395072;19;20018;-82
2022/09/07 02:31:09;;;;;;;19.25;13.70;;;17.20;99.90;;;;;;7394174;19;20018;-82
2022/09/07 02:33:35;;;;;;;17.90;14.70;;;17.20;99.90;;;;;;7396118;19;20015;-83
2022/09/07 02:36:03;;;;;;;23.52;18.85;;;17.20;99.90;;;;;;7393623;19;20014;-82
2022/09/07 02:38:29;;;;;;;22.52;19.08;;;17.20;99.90;;;;;;7391311;19;20078;-83
2022/09/07 02:40:58;;;;;;;21.38;18.10;;;17.10;99.90;;;;;;7396211;19;20010;-83
2022/09/07 02:43:25;;;;;;;21.58;18.27;;;17.10;99.90;;;;;;7392395;19;20015;-82
2022/09/07 02:46:20;;;;;;;21.33;19.00;;;17.10;99.90;;;;;;7392367;19;20028;-83
2022/09/07 02:49:00;;;;;;;28.42;21.13;;;17.10;99.90;;;;;;7392755;19;20081;-82
2022/09/07 02:51:40;;;;;;;27.05;23.90;;;17.00;99.90;;;;;;7392643;19;20480;-82
2022/09/07 02:54:42;;;;;;;20.13;17.77;;;16.90;99.90;;;;;;7395728;19;20082;-82
2022/09/07 02:57:13;;;;;;;24.90;20.65;;;16.90;99.90;;;;;;7391796;19;20471;-83
2022/09/07 03:00:11;;;;;;;27.23;22.40;;;16.90;99.90;;;;;;7390069;19;20086;-83
2022/09/07 03:03:02;;;;;;;23.85;21.38;;;16.80;99.90;;;;;;7391435;19;20019;-84
2022/09/07 03:05:38;;;;;;;27.88;20.33;;;16.70;99.90;;;;;;7388083;19;20471;-83
2022/09/07 03:08:06;;;;;;;27.63;22.05;;;16.70;99.90;;;;;;7388048;19;20015;-83
2022/09/07 03:10:33;;;;;;;24.30;20.83;;;16.60;99.90;;;;;;7394128;19;20019;-84
2022/09/07 03:12:59;;;;;;;26.92;22.15;;;16.50;99.90;;;;;;7388791;19;20054;-84
2022/09/07 03:15:26;;;;;;;25.20;22.50;;;16.50;99.90;;;;;;7393614;19;20391;-83
2022/09/07 03:17:52;;;;;;;23.40;20.95;;;16.50;99.90;;;;;;7390106;19;20497;-83
2022/09/07 03:20:19;;;;;;;24.17;21.02;;;16.50;99.90;;;;;;7393680;19;20348;-83
2022/09/07 03:22:46;;;;;;;24.92;21.50;;;16.50;99.90;;;;;;7394630;19;20039;-83
2022/09/07 03:25:13;;;;;;;25.02;21.17;;;16.50;99.90;;;;;;7391007;19;20129;-83
2022/09/07 03:27:39;;;;;;;30.77;24.05;;;16.50;99.90;;;;;;7392975;19;20019;-83
2022/09/07 03:30:07;;;;;;;25.88;23.02;;;16.40;99.90;;;;;;7390211;19;20015;-83
2022/09/07 03:32:36;;;;;;;31.23;23.92;;;16.40;99.90;;;;;;7393132;19;20593;-83
2022/09/07 03:35:04;;;;;;;27.45;23.38;;;16.30;99.90;;;;;;7394185;19;20047;-82
2022/09/07 03:37:30;;;;;;;25.55;22.95;;;16.30;99.90;;;;;;7245773;19;2832860;-83
2022/09/07 03:39:56;;;;;;;25.70;23.00;;;16.30;99.90;;;;;;7392352;19;20018;-83
2022/09/07 03:42:22;;;;;;;31.00;24.80;;;16.30;99.90;;;;;;7391739;19;20027;-84
2022/09/07 03:44:48;;;;;;;24.85;22.20;;;16.30;99.90;;;;;;7395245;19;20014;-83
2022/09/07 03:47:15;;;;;;;27.85;20.30;;;16.30;99.90;;;;;;7391221;19;20018;-83
2022/09/07 03:49:42;;;;;;;25.90;23.08;;;16.40;99.90;;;;;;7393851;19;20018;-83
2022/09/07 03:52:07;;;;;;;28.20;25.17;;;16.50;99.90;;;;;;7391475;19;20010;-83
2022/09/07 03:54:33;;;;;;;30.77;25.90;;;16.40;99.90;;;;;;7394177;19;20014;-83
2022/09/07 03:56:59;;;;;;;33.38;27.60;;;16.30;99.90;;;;;;7391805;19;20011;-82
2022/09/07 03:59:25;;;;;;;28.23;25.33;;;16.30;99.90;;;;;;7389483;19;20352;-83
2022/09/07 04:01:51;;;;;;;36.42;27.58;;;16.30;99.90;;;;;;7394749;19;20014;-83
2022/09/07 04:04:19;;;;;;;27.33;24.63;;;16.30;99.90;;;;;;7393855;19;20044;-83
2022/09/07 04:06:45;;;;;;;32.58;26.33;;;16.30;99.90;;;;;;7391314;19;20015;-83
2022/09/07 04:09:13;;;;;;;28.77;23.95;;;16.20;99.90;;;;;;7394064;19;20140;-83
2022/09/07 04:11:42;;;;;;;31.15;26.75;;;16.20;99.90;;;;;;7390969;19;20046;-83
2022/09/07 04:14:09;;;;;;;31.27;27.65;;;16.30;99.90;;;;;;7391439;19;20034;-83
2022/09/07 04:16:36;;;;;;;31.60;27.10;;;16.30;99.90;;;;;;7395584;19;20505;-82
2022/09/07 04:19:03;;;;;;;30.02;25.50;;;16.20;99.90;;;;;;7400965;19;20018;-82
2022/09/07 04:21:30;;;;;;;30.40;27.13;;;16.30;99.90;;;;;;7398717;19;20024;-82
2022/09/07 04:23:57;;;;;;;32.22;26.38;;;16.20;99.90;;;;;;7399917;19;20019;-81
2022/09/07 04:26:31;;;;;;;30.95;27.15;;;16.20;99.90;;;;;;7400044;19;20053;-82
2022/09/07 04:28:59;;;;;;;24.50;21.88;;;16.20;99.90;;;;;;7398212;19;20094;-82
2022/09/07 04:31:26;;;;;;;29.83;26.67;;;16.20;99.90;;;;;;7400329;19;20026;-81
2022/09/07 04:33:54;;;;;;;28.27;25.38;;;16.20;99.90;;;;;;7400077;19;20014;-81
2022/09/07 04:36:20;;;;;;;29.08;25.88;;;16.20;99.90;;;;;;7400183;19;20015;-82
2022/09/07 04:38:52;;;;;;;29.05;26.00;;;16.20;99.90;;;;;;7396763;19;20491;-82
2022/09/07 04:41:18;;;;;;;30.40;27.05;;;16.20;99.90;;;;;;7397466;19;20018;-82
2022/09/07 04:43:45;;;;;;;31.80;28.13;;;16.10;99.90;;;;;;7396636;19;20014;-82
2022/09/07 04:46:18;;;;;;;31.80;26.48;;;16.20;99.90;;;;;;7397747;19;20070;-81
2022/09/07 04:48:48;;;;;;;30.27;27.13;;;16.20;99.90;;;;;;7397744;19;20010;-81
2022/09/07 04:51:15;;;;;;;29.35;26.45;;;16.20;99.90;;;;;;7395784;19;20025;-81
2022/09/07 04:53:41;;;;;;;30.45;27.05;;;16.10;99.90;;;;;;7397059;19;20070;-82
2022/09/07 04:56:07;;;;;;;31.85;27.65;;;16.10;99.90;;;;;;7397146;19;20014;-82
2022/09/07 04:58:35;;;;;;;30.92;27.63;;;16.10;99.90;;;;;;7399432;19;20407;-81
2022/09/07 05:01:02;;;;;;;32.13;28.70;;;16.10;99.90;;;;;;7396602;19;20379;-81
2022/09/07 05:03:29;;;;;;;29.50;26.50;;;16.10;99.90;;;;;;7396839;19;20018;-81
2022/09/07 05:05:55;;;;;;;30.67;27.52;;;16.10;99.90;;;;;;7392828;19;20022;-82
2022/09/07 05:08:21;;;;;;;30.38;27.17;;;16.10;99.90;;;;;;7397294;19;20110;-82
2022/09/07 05:10:51;;;;;;;30.27;27.00;;;16.10;99.90;;;;;;7397030;19;20018;-82
2022/09/07 05:13:17;;;;;;;31.83;28.45;;;16.10;99.90;;;;;;7395926;19;20014;-82
2022/09/07 05:15:43;;;;;;;36.35;29.50;;;16.10;99.90;;;;;;7396382;19;20486;-81
2022/09/07 05:18:09;;;;;;;33.85;30.00;;;16.20;99.90;;;;;;7395869;19;20011;-82
2022/09/07 05:20:34;;;;;;;29.33;26.52;;;16.20;99.90;;;;;;7399761;19;20027;-82
2022/09/07 05:23:00;;;;;;;29.83;26.67;;;16.20;99.90;;;;;;7397388;19;20022;-81
2022/09/07 05:25:27;;;;;;;31.77;28.23;;;16.20;99.90;;;;;;7396871;19;20010;-81
2022/09/07 05:27:54;;;;;;;29.80;26.27;;;16.20;99.90;;;;;;7398163;19;20022;-81
2022/09/07 05:30:20;;;;;;;24.08;21.70;;;16.30;99.90;;;;;;7395761;19;20014;-81
2022/09/07 05:32:46;;;;;;;27.17;24.27;;;16.20;99.90;;;;;;7400924;19;20019;-81
2022/09/07 05:35:13;;;;;;;29.42;26.48;;;16.30;99.90;;;;;;7398722;19;20031;-82
2022/09/07 05:37:39;;;;;;;33.22;29.27;;;16.30;99.90;;;;;;7397268;19;20508;-82
2022/09/07 05:40:05;;;;;;;30.45;26.88;;;16.30;99.90;;;;;;7393794;19;20018;-82
2022/09/07 05:42:33;;;;;;;31.73;26.38;;;16.30;99.90;;;;;;7395190;19;20014;-82
2022/09/07 05:44:59;;;;;;;28.98;25.92;;;16.30;99.90;;;;;;7395410;19;20015;-82
2022/09/07 05:47:26;;;;;;;30.90;27.63;;;16.30;99.90;;;;;;7393492;19;20016;-82
2022/09/07 05:49:53;;;;;;;29.42;26.52;;;16.30;99.90;;;;;;7395503;19;20010;-82
2022/09/07 05:52:20;;;;;;;29.27;25.55;;;16.40;99.90;;;;;;7395117;19;20014;-82
2022/09/07 05:54:46;;;;;;;29.25;25.73;;;16.40;99.90;;;;;;7395657;19;20483;-82
2022/09/07 05:57:12;;;;;;;29.45;26.35;;;16.40;99.90;;;;;;7395632;19;20839;-81
2022/09/07 05:59:38;;;;;;;29.23;26.17;;;16.50;99.90;;;;;;7395767;19;20018;-81
2022/09/07 06:02:05;;;;;;;27.80;24.92;;;16.50;99.90;;;;;;7394877;19;20010;-82
2022/09/07 06:04:31;;;;;;;27.85;24.88;;;16.50;99.90;;;;;;7397995;19;20098;-87
2022/09/07 06:06:56;;;;;;;27.13;24.05;;;16.50;99.90;;;;;;7400024;19;20025;-90
2022/09/07 06:09:22;;;;;;;32.40;27.85;;;16.50;99.90;;;;;;7397580;19;20022;-81
2022/09/07 06:11:48;;;;;;;88.30;30.02;;;16.50;99.90;;;;;;7398186;19;20017;-93
2022/09/07 06:14:14;;;;;;;27.60;24.80;;;16.40;99.90;;;;;;7393351;19;20070;-82
2022/09/07 06:16:40;;;;;;;28.30;25.38;;;16.60;99.90;;;;;;7396270;19;20050;-81
2022/09/07 06:19:07;;;;;;;25.92;23.13;;;16.60;99.90;;;;;;7396381;19;20721;-86
2022/09/07 06:21:37;;;;;;;22.92;20.52;;;16.50;99.90;;;;;;7396823;19;20026;-85
2022/09/07 06:24:04;;;;;;;21.60;19.48;;;16.60;99.90;;;;;;7394229;19;20006;-82
2022/09/07 06:26:30;;;;;;;25.77;23.05;;;16.70;99.90;;;;;;7395146;19;20018;-82
2022/09/07 06:28:56;;;;;;;22.08;19.83;;;16.70;99.90;;;;;;7396125;19;20010;-82
2022/09/07 06:31:23;;;;;;;28.35;25.35;;;16.80;99.90;;;;;;7396402;19;20015;-82
2022/09/07 06:33:49;;;;;;;25.67;22.95;;;16.90;99.90;;;;;;7395769;19;20026;-82
2022/09/07 06:36:22;;;;;;;27.98;24.70;;;17.00;99.90;;;;;;7395061;19;20006;-82
2022/09/07 06:38:49;;;;;;;28.27;25.55;;;17.00;99.90;;;;;;7394908;19;20474;-82
2022/09/07 06:41:25;;;;;;;24.38;21.90;;;16.90;99.90;;;;;;7394886;19;20022;-81
2022/09/07 06:43:53;;;;;;;25.38;22.70;;;16.90;99.90;;;;;;7393892;19;20018;-81
2022/09/07 06:46:19;;;;;;;27.10;24.27;;;16.90;99.90;;;;;;7394447;19;20022;-82
2022/09/07 06:48:44;;;;;;;29.33;26.17;;;17.00;99.90;;;;;;7396038;19;20014;-81
2022/09/07 06:51:19;;;;;;;27.50;24.67;;;17.10;99.90;;;;;;7395319;19;20045;-82
2022/09/07 06:53:47;;;;;;;25.55;23.08;;;17.00;99.90;;;;;;7393815;19;20082;-81
2022/09/07 06:56:14;;;;;;;19.88;17.95;;;17.00;99.90;;;;;;7395212;19;20043;-81
2022/09/07 06:58:40;;;;;;;29.20;26.20;;;17.10;99.90;;;;;;7395508;19;20026;-81
2022/09/07 07:01:18;;;;;;;25.73;23.13;;;17.20;99.90;;;;;;7390620;19;20022;-81
2022/09/07 07:03:45;;;;;;;25.60;23.20;;;17.30;99.90;;;;;;7396695;19;20019;-81
2022/09/07 07:06:12;;;;;;;27.60;25.00;;;17.40;99.90;;;;;;7394367;19;20038;-82
2022/09/07 07:08:38;;;;;;;30.98;26.20;;;17.50;99.90;;;;;;7395795;19;20018;-81
2022/09/07 07:11:22;;;;;;;28.73;25.67;;;17.70;99.90;;;;;;7391301;19;20496;-81
2022/09/07 07:13:48;;;;;;;27.08;24.00;;;18.50;99.90;;;;;;7392100;19;20011;-81
2022/09/07 07:16:19;;;;;;;24.40;22.10;;;19.50;99.90;;;;;;7393659;19;20039;-81
2022/09/07 07:18:47;;;;;;;24.15;21.73;;;19.90;99.90;;;;;;7395813;19;20019;-81
2022/09/07 07:21:14;;;;;;;23.25;20.92;;;20.50;99.90;;;;;;7392370;19;20007;-81
2022/09/07 07:23:40;;;;;;;23.30;21.10;;;20.50;99.90;;;;;;7391613;19;20018;-82
2022/09/07 07:26:11;;;;;;;23.10;20.83;;;20.10;99.90;;;;;;7397144;19;20086;-81
2022/09/07 07:28:37;;;;;;;21.77;19.67;;;19.50;99.90;;;;;;7395775;19;20070;-82
2022/09/07 07:31:05;;;;;;;22.40;20.17;;;18.80;99.90;;;;;;7392440;19;20010;-81
2022/09/07 07:33:34;;;;;;;25.27;22.77;;;18.50;99.90;;;;;;7393390;19;20030;-81
2022/09/07 07:36:18;;;;;;;23.50;21.23;;;18.30;99.90;;;;;;7393754;19;20078;-81
2022/09/07 07:38:47;;;;;;;26.23;23.63;;;18.20;99.90;;;;;;7393960;19;20021;-81
2022/09/07 07:41:15;;;;;;;27.40;24.60;;;18.00;99.90;;;;;;7392055;19;20039;-82
2022/09/07 07:43:41;;;;;;;28.58;25.42;;;18.00;99.90;;;;;;7395962;19;20018;-81
2022/09/07 07:46:07;;;;;;;26.63;24.00;;;17.90;99.90;;;;;;7393785;19;20014;-81
2022/09/07 07:48:34;;;;;;;27.95;25.05;;;17.90;99.90;;;;;;7391301;19;20699;-81
2022/09/07 07:51:03;;;;;;;25.85;22.95;;;18.00;99.90;;;;;;7397310;19;20018;-81
2022/09/07 07:53:32;;;;;;;26.15;23.55;;;18.00;99.90;;;;;;7402490;19;20468;-81
2022/09/07 07:55:59;;;;;;;28.45;25.52;;;18.00;99.90;;;;;;7400050;19;20018;-81
2022/09/07 07:58:28;;;;;;;28.00;25.15;;;18.10;99.90;;;;;;7399433;19;20014;-81
2022/09/07 08:00:54;;;;;;;27.65;24.80;;;18.10;99.90;;;;;;7400127;19;20014;-81
2022/09/07 08:03:21;;;;;;;26.38;23.27;;;18.20;99.90;;;;;;7400016;19;20018;-81
2022/09/07 08:05:47;;;;;;;28.35;25.38;;;18.40;99.90;;;;;;7398825;19;20018;-81
2022/09/07 08:08:14;;;;;;;25.77;23.17;;;18.50;99.90;;;;;;7396748;19;20738;-81
2022/09/07 08:10:40;;;;;;;22.92;20.60;;;18.70;99.90;;;;;;7398038;19;20371;-81
2022/09/07 08:13:06;;;;;;;23.65;21.25;;;18.80;99.90;;;;;;7396860;19;20456;-81
2022/09/07 08:15:38;;;;;;;21.50;19.50;;;18.90;99.90;;;;;;7401867;19;20018;-81
2022/09/07 08:18:04;;;;;;;20.60;17.48;;;19.10;99.90;;;;;;7399464;19;20412;-81
2022/09/07 08:20:30;;;;;;;20.35;18.40;;;19.20;99.90;;;;;;7400332;19;20014;-81
2022/09/07 08:22:56;;;;;;;22.40;20.20;;;19.30;99.90;;;;;;7398593;19;20019;-82
2022/09/07 08:25:21;;;;;;;17.10;15.30;;;19.30;99.90;;;;;;7399780;19;20460;-81
2022/09/07 08:27:47;;;;;;;17.90;14.80;;;19.30;99.90;;;;;;7398830;19;20026;-82
2022/09/07 08:30:13;;;;;;;15.35;13.73;;;19.30;99.90;;;;;;7399944;19;20086;-82
2022/09/07 08:32:39;;;;;;;19.45;16.48;;;19.30;99.90;;;;;;7397899;19;20047;-81
2022/09/07 08:35:06;;;;;;;18.25;16.05;;;19.20;99.90;;;;;;7400591;19;20014;-81
2022/09/07 08:37:32;;;;;;;13.15;11.85;;;19.30;99.90;;;;;;7399204;19;20025;-82
2022/09/07 08:39:59;;;;;;;14.68;13.27;;;19.30;99.90;;;;;;7398803;19;20471;-82
2022/09/07 08:42:46;;;;;;;15.02;13.60;;;19.40;99.90;;;;;;7396773;19;20043;-82
2022/09/07 08:45:27;;;;;;;16.13;12.82;;;19.30;99.90;;;;;;7396564;19;20039;-81
2022/09/07 08:47:53;;;;;;;18.77;16.85;;;19.40;99.90;;;;;;7399865;19;20021;-82
2022/09/07 08:50:43;;;;;;;17.38;15.77;;;19.60;99.90;;;;;;7397414;19;20015;-81
2022/09/07 08:53:17;;;;;;;15.45;13.90;;;19.70;99.90;;;;;;7396806;19;20018;-81
2022/09/07 08:55:49;;;;;;;15.75;14.35;;;19.60;99.90;;;;;;7397962;19;20040;-82
2022/09/07 08:58:21;;;;;;;12.95;11.68;;;19.60;99.90;;;;;;7394970;19;20018;-81
2022/09/07 09:00:49;;;;;;;14.35;12.70;;;19.50;99.90;;;;;;7400339;19;20025;-81
2022/09/07 09:03:27;;;;;;;15.35;13.77;;;19.60;99.90;;;;;;7396934;19;20026;-81
2022/09/07 09:06:01;;;;;;;12.88;11.68;;;19.80;99.90;;;;;;7399353;19;20043;-81
2022/09/07 09:08:50;;;;;;;13.68;12.32;;;19.90;99.90;;;;;;7398909;19;20091;-81
2022/09/07 09:11:43;;;;;;;18.45;14.88;;;20.00;99.90;;;;;;7399723;19;20014;-81
2022/09/07 09:14:42;;;;;;;10.73;9.33;;;19.90;99.90;;;;;;7394709;19;20018;-81
2022/09/07 09:17:22;;;;;;;13.57;12.18;;;20.20;99.90;;;;;;7396208;19;20085;-81
2022/09/07 09:20:19;;;;;;;11.15;9.98;;;20.40;99.90;;;;;;7394797;19;20032;-81
2022/09/07 09:22:45;;;;;;;13.15;11.77;;;20.50;99.90;;;;;;7396535;19;20456;-81
2022/09/07 09:25:30;;;;;;;17.35;15.50;;;20.40;99.90;;;;;;7394832;19;20014;-81
2022/09/07 09:27:55;;;;;;;14.55;12.85;;;20.40;99.90;;;;;;7397036;19;20027;-81
2022/09/07 09:30:23;;;;;;;13.18;10.57;;;20.50;99.90;;;;;;7394557;19;20382;-81
2022/09/07 09:32:51;;;;;;;18.27;16.48;;;20.40;99.90;;;;;;7398321;19;20018;-81
2022/09/07 09:35:33;;;;;;;15.02;11.98;;;20.40;99.90;;;;;;7395676;19;20375;-80
2022/09/07 09:38:02;;;;;;;18.23;16.33;;;20.60;99.90;;;;;;7393784;19;20496;-81
2022/09/07 09:40:34;;;;;;;18.83;16.90;;;20.70;99.90;;;;;;7398801;19;20023;-81
2022/09/07 09:43:14;;;;;;;12.63;11.30;;;20.40;99.90;;;;;;7398301;19;20018;-82
2022/09/07 09:45:45;;;;;;;12.60;11.27;;;20.50;99.90;;;;;;7393817;19;20420;-81
2022/09/07 09:48:20;;;;;;;13.43;11.10;;;20.70;99.90;;;;;;7394925;19;20010;-81
2022/09/07 09:50:52;;;;;;;18.50;16.52;;;20.80;99.90;;;;;;7391133;19;20484;-82
2022/09/07 09:53:28;;;;;;;15.70;13.10;;;21.00;99.90;;;;;;7391437;19;20348;-82
2022/09/07 09:55:55;;;;;;;18.13;16.02;;;21.10;99.90;;;;;;7388135;19;20023;-86
2022/09/07 09:58:32;;;;;;;17.48;14.25;;;21.10;99.90;;;;;;7393096;19;20010;-87
2022/09/07 10:01:20;;;;;;;19.90;17.83;;;21.00;99.90;;;;;;7396445;19;20018;-87
2022/09/07 10:03:46;;;;;;;21.92;19.65;;;21.00;99.90;;;;;;7396980;19;20035;-86
2022/09/07 10:06:16;;;;;;;18.40;16.58;;;20.90;99.90;;;;;;7391623;19;20092;-89
2022/09/07 10:08:58;;;;;;;14.95;13.00;;;21.10;99.90;;;;;;7396086;19;20014;-87
2022/09/07 10:11:43;;;;;;;16.90;15.10;;;21.10;99.90;;;;;;7392354;19;20006;-88
2022/09/07 10:14:21;;;;;;;9.73;7.65;;;21.30;99.90;;;;;;7393675;19;20039;-88
2022/09/07 10:16:47;;;;;;;18.30;16.38;;;21.30;99.90;;;;;;7396264;19;20070;-87
2022/09/07 10:19:35;;;;;;;20.83;18.73;;;21.40;99.90;;;;;;7391285;19;20024;-90
2022/09/07 10:22:21;;;;;;;14.40;12.18;;;21.50;99.90;;;;;;7396339;19;20035;-89
2022/09/07 10:24:49;;;;;;;19.05;17.15;;;21.50;99.90;;;;;;7393396;19;20029;-88
2022/09/07 10:27:28;;;;;;;20.20;18.15;;;21.50;99.90;;;;;;7396734;19;20015;-89
2022/09/07 10:29:54;;;;;;;11.77;10.00;;;21.40;99.90;;;;;;7393505;19;20018;-88
2022/09/07 10:32:42;;;;;;;7.38;6.55;;;21.40;99.90;;;;;;7389968;19;20014;-89
2022/09/07 10:35:15;;;;;;;17.92;16.13;;;21.30;99.90;;;;;;7396951;19;20035;-87
2022/09/07 10:37:47;;;;;;;21.92;19.85;;;21.30;99.90;;;;;;7395083;19;20010;-86
2022/09/07 10:40:27;;;;;;;9.33;8.43;;;21.20;99.90;;;;;;7390849;19;20345;-87
2022/09/07 10:43:21;;;;;;;11.02;9.52;;;21.20;99.90;;;;;;7393558;19;20047;-86
2022/09/07 10:46:09;;;;;;;22.98;20.50;;;21.10;99.90;;;;;;7397038;19;20492;-86
2022/09/07 10:48:54;;;;;;;21.50;19.40;;;21.20;99.90;;;;;;7393215;19;20399;-86
2022/09/07 10:51:41;;;;;;;21.00;18.80;;;21.30;99.90;;;;;;7395087;19;20503;-87
2022/09/07 10:54:22;;;;;;;23.38;21.08;;;21.50;99.90;;;;;;7393024;19;20152;-87
2022/09/07 10:57:02;;;;;;;15.05;12.73;;;21.60;99.90;;;;;;7394953;19;20360;-85
2022/09/07 10:59:45;;;;;;;20.92;18.83;;;21.70;99.90;;;;;;7395246;19;20028;-84
2022/09/07 11:02:23;;;;;;;17.13;15.32;;;21.70;99.90;;;;;;7392222;19;20018;-84
2022/09/07 11:05:11;;;;;;;19.45;17.05;;;21.70;99.90;;;;;;7395736;19;20022;-83
2022/09/07 11:08:06;;;;;;;8.23;7.30;;;21.80;99.90;;;;;;7392728;19;20472;-84
2022/09/07 11:10:43;;;;;;;21.25;19.05;;;21.70;99.90;;;;;;7394548;19;20010;-84
2022/09/07 11:13:14;;;;;;;10.68;9.63;;;21.70;99.90;;;;;;7394616;19;20026;-84
2022/09/07 11:15:57;;;;;;;18.35;16.52;;;21.60;99.90;;;;;;7394652;19;20026;-84
2022/09/07 11:18:31;;;;;;;21.95;19.25;;;21.70;99.90;;;;;;7394331;19;20021;-85
2022/09/07 11:20:59;;;;;;;15.77;14.10;;;21.50;99.90;;;;;;7393744;19;20011;-85
2022/09/07 11:23:28;;;;;;;9.75;8.77;;;21.50;99.90;;;;;;7391289;19;20094;-85
2022/09/07 11:26:06;;;;;;;18.70;16.80;;;21.40;99.90;;;;;;7397111;19;20476;-84
2022/09/07 11:28:55;;;;;;;15.25;13.73;;;21.60;99.90;;;;;;7401390;19;20039;-84
2022/09/07 11:31:46;;;;;;;14.35;11.35;;;21.60;99.90;;;;;;7401416;19;20010;-85
2022/09/07 11:34:23;;;;;;;18.52;16.73;;;21.80;99.90;;;;;;7402468;19;20019;-85
2022/09/07 11:37:00;;;;;;;16.77;13.48;;;22.00;99.90;;;;;;7401090;19;20015;-84
2022/09/07 11:39:34;;;;;;;6.88;6.18;;;22.30;99.90;;;;;;7398856;19;20018;-85
2022/09/07 11:42:01;;;;;;;18.65;9.23;;;22.60;99.90;;;;;;7400915;19;20404;-85
2022/09/07 11:44:46;;;;;;;9.27;6.10;;;22.90;99.90;;;;;;7401034;19;20041;-85
2022/09/07 11:47:42;;;;;;;13.85;12.45;;;23.30;99.90;;;;;;7403862;19;20078;-86
2022/09/07 11:50:21;;;;;;;15.27;13.68;;;23.50;99.90;;;;;;7401458;19;20011;-85
2022/09/07 11:53:10;;;;;;;12.15;10.95;;;23.40;99.90;;;;;;7401187;19;20029;-85
2022/09/07 11:55:39;;;;;;;13.55;12.13;;;23.20;99.90;;;;;;7400896;19;20491;-84
2022/09/07 11:58:17;;;;;;;11.07;10.07;;;23.10;99.90;;;;;;7402939;19;20014;-84
2022/09/07 12:00:51;;;;;;;13.73;12.27;;;23.20;99.90;;;;;;7401687;19;20451;-84
2022/09/07 12:03:29;;;;;;;9.93;8.93;;;23.20;99.90;;;;;;7397535;19;20057;-85
2022/09/07 12:06:33;;;;;;;9.05;8.15;;;23.30;99.90;;;;;;7400310;19;20111;-84
2022/09/07 12:09:28;;;;;;;9.77;8.85;;;23.40;99.90;;;;;;7399682;19;20007;-84
2022/09/07 12:12:29;;;;;;;8.70;7.80;;;23.40;99.90;;;;;;7402252;19;20543;-85
2022/09/07 12:15:01;;;;;;;10.98;9.88;;;23.20;99.90;;;;;;7398058;19;20524;-84
2022/09/07 12:17:45;;;;;;;6.13;5.13;;;23.20;99.90;;;;;;7396107;19;20018;-84
2022/09/07 12:20:17;;;;;;;6.38;4.50;;;23.20;99.90;;;;;;7391620;19;20025;-84
2022/09/07 12:23:25;;;;;;;7.43;4.05;;;23.20;99.90;;;;;;7394874;19;20035;-84
2022/09/07 12:25:51;;;;;;;8.80;7.28;;;23.20;99.90;;;;;;7394940;19;20480;-84
2022/09/07 12:28:23;;;;;;;8.18;7.30;;;23.40;99.90;;;;;;7398727;19;20039;-84
2022/09/07 12:31:13;;;;;;;6.97;6.20;;;23.60;99.90;;;;;;7400145;19;20010;-84
2022/09/07 12:33:39;;;;;;;8.20;7.18;;;23.70;99.90;;;;;;7400133;19;20475;-84
2022/09/07 12:36:27;;;;;;;4.03;3.58;;;23.60;99.90;;;;;;7394013;19;20477;-84
2022/09/07 12:39:20;;;;;;;9.48;7.72;;;23.80;99.90;;;;;;7399371;19;20014;-84
2022/09/07 12:41:49;;;;;;;6.20;5.47;;;23.90;99.90;;;;;;7401757;19;20021;-84
2022/09/07 12:44:17;;;;;;;8.35;6.95;;;23.80;99.90;;;;;;7399340;19;20021;-85
2022/09/07 12:46:52;;;;;;;5.00;4.05;;;23.60;99.90;;;;;;7396824;19;20040;-85
2022/09/07 12:49:32;;;;;;;9.60;8.23;;;23.50;99.90;;;;;;7397413;19;20432;-85
2022/09/07 12:52:20;;;;;;;8.10;7.03;;;23.50;99.90;;;;;;7397942;19;20026;-85
2022/09/07 12:54:51;;;;;;;11.13;8.10;;;23.30;99.90;;;;;;7396751;19;20037;-85
2022/09/07 12:57:29;;;;;;;10.67;7.70;;;23.30;99.90;;;;;;7395019;19;20023;-85
2022/09/07 13:00:14;;;;;;;8.23;7.43;;;23.30;99.90;;;;;;7392449;19;20035;-85